Archival Weather

Yakutsk

Yakutsk, Russia (UEEE)

Report from: Monday, February 6, 2023 5:00 AM JST
Current time: Saturday, June 22, 2024 8:19 AM JST

Current weather – Weather history – Daily summaries
Weather forecast

Present weatherLight snow, mist
Temperature-41.0°C (-41.8°F)
Dew point-45.0°C (-49.0°F)
Winds 1.9 kts (1 m/s, 2.2 mph) North-Northwest (330°)
Visibility4921.3 ft. (1.5 km)
Altimeter30.18 in.Hg (1022 mB)
Precip. events QF 7:38 AM
Relative humidity65 %
Density altitude-7,863 ft. (-2,397 m)
Remarks No significant changes expected in the next two hours
Flight conditions Low Instrument Meteorological Conditions
Raw dataUEEE 052000Z 33001MPS 1500 1200NE R23L/P2000D -SN BR NSC M41/M45 Q1022 R23L/490150 NOSIG RMK QFE758
An error has occurred. This application may no longer respond until reloaded. Reload 🗙